Nearby METAR Reports

 

KFRG - , , USA
Distance from station: SSW 12mi, 20km
Updated: 04/10/2020 6:53am
Clear
Clear
 Wind from W
Wind: W 12 mph , 19 km/h
Temperature: 39°F , 4°C
Wind Chill: 32°F , 0°C
Dew Point: 28°F , -2°C
Humidity: 65%
Barometer: 29.35 inHg , 993.9 hPa
Clouds: Clear
Visibility: 10 miles , 16 km
2020/04/10 10:53 KFRG 101053Z AUTO 28010KT 10SM CLR 04/M02 A2935 RMK AO2 SLP940 T00441017
KISP - , , USA
Distance from station: ESE 14mi, 23km
Updated: 04/10/2020 6:56am
Few Clouds
Few Clouds
 Wind from W
Wind: W 16 mph , 26 km/h, Gust: 26 mph , 43 km/h
Temperature: 37°F , 3°C
Wind Chill: 28°F , -2°C
Dew Point: 30°F , -1°C
Humidity: 75%
Barometer: 29.33 inHg , 993.2 hPa
Clouds: Few Clouds
Visibility: 10 miles , 16 km
Cloud details: Few Clouds 1200 ft
Few Clouds 11000 ft
Few Clouds 25000 ft
2020/04/10 10:56 KISP 101056Z 27014G23KT 10SM FEW012 FEW110 FEW250 03/M01 A2933 RMK AO2 SLP932 T00331011
 
KBDR - , , USA
Distance from station: NNE 21mi, 34km
Updated: 04/10/2020 6:52am
Few Clouds
Few Clouds
 Wind from W
Wind: W 17 mph , 28 km/h, Gust: 22 mph , 35 km/h
Temperature: 39°F , 4°C
Wind Chill: 30°F , -1°C
Dew Point: 28°F , -2°C
Humidity: 65%
Barometer: 29.30 inHg , 992.2 hPa
Clouds: Few Clouds
Visibility: 10 miles , 16 km
Cloud details: Few Clouds 4200 ft
2020/04/10 10:52 KBDR 101052Z 27015G19KT 10SM FEW042 04/M02 A2930 RMK AO2 SLP923 T00441022
KHPN - , , USA
Distance from station: WNW 22mi, 35km
Updated: 04/10/2020 6:56am
Mostly cloudy
Mostly cloudy
 Wind from W
Wind: W 13 mph , 20 km/h, Gust: 23 mph , 37 km/h
Temperature: 37°F , 3°C
Wind Chill: 29°F , -2°C
Dew Point: 27°F , -3°C
Humidity: 65%
Barometer: 29.32 inHg , 992.9 hPa
Clouds: Mostly cloudy
Visibility: 10 miles , 16 km
Cloud details: Mostly cloudy 3800 ft
2020/04/10 10:56 KHPN 101056Z 27011G20KT 10SM BKN038 03/M03 A2932 RMK AO2 SLP932 T00281028
 
KHWV - , , USA
Distance from station: ESE 26mi, 41km
Updated: 04/10/2020 6:56am
Clear
Clear
 Wind from W
Wind: W 16 mph , 26 km/h, Gust: 22 mph , 35 km/h
Temperature: 39°F , 4°C
Wind Chill: 30°F , -1°C
Dew Point: 27°F , -3°C
Humidity: 61%
Barometer: 29.33 inHg , 993.2 hPa
Clouds: Clear
Visibility: 10 miles , 16 km
2020/04/10 10:56 KHWV 101056Z AUTO 27014G19KT 10SM CLR 04/M03 A2933 RMK AO2 PK WND 27027/1010 SLP931 T00441028 TSNO
KJFK - , , USA
Distance from station: SW 29mi, 46km
Updated: 04/10/2020 6:51am
Few Clouds
Few Clouds
 Wind from W
Wind: W 26 mph , 43 km/h, Gust: 38 mph , 61 km/h
Temperature: 39°F , 4°C
Wind Chill: 28°F , -2°C
Dew Point: 28°F , -2°C
Humidity: 65%
Barometer: 29.38 inHg , 994.9 hPa
Clouds: Few Clouds
Visibility: 10 miles , 16 km
Cloud details: Few Clouds 3500 ft
2020/04/10 10:51 KJFK 101051Z 28023G33KT 10SM FEW035 04/M02 A2938 RMK AO2 PK WND 27034/1026 SLP947 T00441022
 
KLGA - , , USA
Distance from station: WSW 29mi, 47km
Updated: 04/10/2020 6:51am
Few Clouds
Few Clouds
 Wind from W
Wind: W 20 mph , 31 km/h, Gust: 29 mph , 46 km/h
Temperature: 41°F , 5°C
Wind Chill: 32°F , 0°C
Dew Point: 27°F , -3°C
Humidity: 57%
Barometer: 29.36 inHg , 994.2 hPa
Clouds: Few Clouds
Visibility: 10 miles , 16 km
Cloud details: Few Clouds 3000 ft
2020/04/10 10:51 KLGA 101051Z 26017G25KT 10SM FEW030 05/M03 A2936 RMK AO2 PK WND 27026/1013 SLP943 T00501028